富山空港

2020/09/27

空旅 ANA316 2020/9/26 sat

急遽、やんごとなき事由で東京に行くことになりました。今年になって、初めての空旅です。

20200926_rjnt_00tyo

旧広貫堂があった場所が、TYO GALLERYになりました。

20200926_rjnt_01tyo

フォトコンで応募された写真がスライドショーで流れています。

20200926_rjnt_02ja6777

JA6777 AS332L1 TAS

よく上空を行き来してた機体がお泊り。この後名古屋に向かったようです。

RJNT 252300Z 14003KT 060V230 9999 FEW010 BKN/// 24/20 Q1005

20200926_rjnt_03ja01an

20200926_rjnt_04ja01an

20200926_rjnt_05ja01an

ANA313 RJTT-RJNT JA01AN B737-781

RJNT 260000Z VRB01KT 9999 FEW010 BKN/// 24/20 Q1005

20200926_rjnt_06ja6777

さて乗機

20200926_rjnt_07ja01an

歌舞伎の安全ビデオが秀逸 

20200926_rjnt_08ja01an

RW02ランナップ

###

 

###

20200926_xnh316_09tyo

富山湾を上昇していきます。

20200926_xnh316_10tyo

そそり立つ剣岳 約8000ftぐらいかな

20200926_xnh316_11ja01an

機内サービスは、お茶か水ボトル スヌーピーのカップがカワイイ

RJNT 260100Z 31004KT 9999 FEW015 SCT190 BKN/// 24/19 Q1006

RJTT 260100Z 01009KT 5000 -RA BR FEW007 BKN011 19/18 Q1008 TEMPO 4000 -RA BR FEW005 BKN008 RMK 1ST007 7SC011 A2979

20200926_xnh316_12ja01an

搭乗数は、各列に一グループ

20200926_xnh316_13hnd

ANA316 RJNT-RJTT JA01AN B737-781

羽田は、雨

RJTT 260130Z 01009KT 3500 R34L/P2000N R22/2000N R34R/P2000N R05/P2000N -RA BR FEW003 BKN007 BKN010 19/19 Q1008 TEMPO 3000 -RA BR RMK 1ST003 5ST007 6SC010 A2978

20200926_xnh316_14hnd

ターミナル前の沖留め。バスで到着ロビーへ

| | コメント (0)

2020/09/19

定点 富山空港 2020/9/19 sat

巷では、シルバーウイークとやらで四連休。コロナ禍なのですが、GoToキャンペーンで出かけて、いいのか、悪いのか。小生は地元でチンとしてますが。

RJNT 162300Z 18007KT 130V220 9999 FEW025 BKN130 28/20 Q1011

20200919_rjnt_00ja02an

この週間で、いっきに秋めいた青空

20200919_rjnt_01boat

海にはプレジャーボートがスイスイ 思わず、タッククロス(違

20200919_rjnt_02ja02an

ANA313 RJTT-RJNT JA02AN B737-781

しばらくチビが入るようになってます。

RJNT 170000Z 18008KT 150V220 9999 FEW020 SCT070 BKN120 29/20 Q1011

20200919_rjnt_03ja6502

JA6502↑ AS350B3 AKF 能登へ

20200919_rjnt_04ja02an

20200919_rjnt_05ja02an

ANA316 RJNT-RJTT JA02AN B737-781

20200919_rjnt_06ja119w

ここしばらく動きのなかった「とやま」さん 久しぶりの実働へ

20200919_rjnt_07ja119w

JA119W↑ AW139 富山県消防防災

RJNT 170100Z 21006KT 160V240 9999 FEW020 SCT070 BKN090 30/20 Q1011

20200919_rjnt_08ja13aj

JA13AJ↓ C208 ASK 今日も朝から一ミッション

20200919_rjnt_09ja119w

早々に戻ってきた「アルペン急行」

20200919_rjnt_10ja119w

富山県奥地からのけが人搬送の模様です。

20200919_rjnt_11env

救急車は、南部出張所 お疲れです

RJNT 170200Z VRB01KT 9999 FEW030 BKN080 BKN/// 29/21 Q1010

20200919_rjnt_12ja727e

JA727E↓ EN48

これは珍しい機体が来ました。陸自でしか見たことない。

RJNT 170300Z 25004KT 190V290 9999 FEW025 SCT080 BKN/// 31/21 Q1009

20200919_rjnt_13ja2429

JA2429↓ Grob G109B

20200919_rjnt_14ja2429

グライダー また乗ってみたいネ

RJNT 170400Z VRB03KT 9999 FEW030 SCT100 BKN/// 31/21 Q1008

20200919_rjnt_15ja6502

JA6502↓

20200919_rjnt_16ja727e

JA727E 給油、休憩を取って、さあ出発と思いきや、エンジンスタートアボート。

20200919_rjnt_17ja2429

JA2429↑ モグラさんが先に行ってしまいました。

20200919_rjnt_18fvc

消防さんの昼ランニング

20200919_rjnt_19ja13aj

JA13AJ 午後のお仕事へ

20200919_rjnt_20ja119w

JA119W↑ 自隊訓練かな

20200919_rjnt_21ja13aj

位置について

20200919_rjnt_22ja13aj

いい上がり

RJNT 170500Z 04007KT 360V090 9999 FEW030 SCT060 BKN100 30/22 Q1008

20200919_rjnt_23ja727e

JA727E↑  14時半に出発 山形行くのかな?

20200919_rjnt_24ja119w

JA119W↓ 訓練終了

RJNT 170600Z 36008KT 9999 FEW030 SCT060 BKN/// 29/22 Q1008

20200919_rjnt_25ja829d

JA829D↓ R66 DAK おなじみさん

20200919_rjnt_26ja87an

ANA1182 RJCC-RJNT JA87AN B737-8AL

何故か今日だけ運航された一方通行の ANA1182/320

帰りは9/22の ANA315/1181 の模様

 

| | コメント (0)

2020/09/12

定点 富山空港他 2020/9/12 sat

暑い日が続きますが、秋風が吹き始めました。

RJNT 112300Z VRB04KT 9999 FEW020CB SCT/// 28/21 Q1012

20200912_rjnt_00eishinmaru25

第二十五永進丸 JD3384 JP 興栄海運

20200912_rjnt_01ja71an

20200912_rjnt_02ja71an

20200912_rjnt_03ja71an

ANA313 RJTT-RJNT JA71AN B737-881

20200912_rjnt_04jintsu

神通 富山市消防局

RJNT 120000Z 15005KT 070V240 9999 FEW020CB 31/21 Q1011

20200912_rjnt_05ja10ym

今日も、飛ぶ 富山県ドクターヘリ

20200912_rjnt_06ja71an

20200912_rjnt_07ja71an

20200912_rjnt_08ja71an

手羽にロゴが入るようになったようです。

20200912_rjnt_09ja71an

ANA316 RJNT-RJTT JA71AN B737-881

20200912_rjnt_10ja10ym

JA10YM← A109SP SAK 富山県ドクターヘリ

RJNT 120200Z 36010KT 9999 FEW025 SCT/// 32/20 Q1010

20200912_rjnt_11ja6512

JA6512↓ AS350B3 AKF

20200912_rjnt_12ja829d

JA829D↓ R66 DAK

RJNT 120300Z 01008KT 340V050 9999 FEW030 SCT/// 32/22 Q1010

河原を後にして、少しお別れトリップにお船巡礼

20200912_rjnt_13kaihomaru

海王丸 やひこさんは、出航中

RJNT 120400Z 01010KT 9999 FEW030 SCT090 31/21 Q1010

20200912_rjnt_14ps203

県の「つるぎ」さんも出航中。「のりくら」さんも姿が見えなかったのですが、橋の上から帰ってくるのを視認。急いで戻りました。

20200912_rjnt_15ps203

20200912_rjnt_16ps203

PS203「のりくら」 伏木海上保安部

20200912_rjnt_17ps203

ウォータージェットを見れたことで、満足。

 

| | コメント (0)

2020/09/11

令和2年度富山空港消火救難訓練 2020.9.11 fri

ぐっぅども~にんぐTOYAMA

時刻は5時前、こんなに早く空港に来たのは、新石垣空港開港の日以来かもしれない。

20200911_rjnt_00fireex

滑走路灯は、すでに点灯しています。

20200911_rjnt_01fireex

夜明け前の空、天頂ちかくにお月様

20200911_rjnt_02fireex

続々訓練参加車両がやって来ます。

20200911_rjnt_03fireex

5時を廻り、少し明るくなってきました。

20200911_rjnt_04fireex

空ビル開放は、無。

20200911_rjnt_05fireex

5時30分 事故発生 空港消防が出動

20200911_rjnt_06fireex

医療作業車も続きます。

20200911_rjnt_07fireex

###

 

###

従来は、停泊している全日空の実機を使って訓練していましたが、このご時世で、泊り便が無く、エアバスがその任に。

20200911_rjnt_08fireex

近隣消防が駆けつけます。富山市消防局から本署、中分署、南部派、婦中、大沢野等

20200911_rjnt_09fireex

近隣消防団も集結。

新保、大久保、堀川、鵜坂、熊野、蜷川、婦中熊野、宮川

20200911_rjnt_10fireex

分団さんは、平日の早朝からご苦労様です。主に空港防火水槽から、放水隊への給水中継。

20200911_rjnt_11fireex

空港化学消防車は3台。タンクが空になると、給水場所に退避して給水。すかさず前線に復帰します。

20200911_rjnt_12fireex

医療関係は、県中、赤十字、市民

20200911_rjnt_13fireex

状況終了。空化は残水処理、乗客役の関係者が徒歩で引き上げてきます。

20200911_rjnt_14fireex

指揮車も引き上げて・・

102110Z 21002KT 9999 FEW002 SCT/// 21/21 Q1014 RMK 1ST002 A2995

20200911_rjnt_15fireex

順列

この後、閉会式をもって終了。小生は、お仕事のため離脱。

期待された新しい防災ヘリは参加しませんでした。残念。

 

| | コメント (0)

2020/09/09

定点 富山空港 2020/9/9 wed

本日は、9月9日で「救急の日」。救急業務及び救急医療に対する国民の正しい理解と認識を深め、救急医療関係者の意識高揚を図ること となっている。関係者の皆さん、がんばれー。って、違うか。

RJNT 082300Z 23003KT 180V280 9999 FEW030 27/21 Q1014

20200909_rjnt_00ja60an

ANA313 RJTT-RJNT JA60AN B737-881

RJNT 090000Z VRB01KT 9999 FEW030 SCT130 29/21 Q1014

20200909_rjnt_01ja60an

なにも変哲のない機体ですが、日常が大事

20200909_rjnt_02ja60an

うっぷ 滑走路補修中で、地面が露出している所があるのね

20200909_rjnt_03ja60an

ANA316 RJNT-RJTT JA60AN B737-881

20200909_rjnt_04ja119w

JA119W AW139 富山県消防防災

日の出から剣岳へ救助に出動していました。放置プレー中。

RJNT 090400Z 01010KT 9999 FEW030 SCT150 32/21 Q1011

20200909_rjnt_05ja119w

JA119W↑ 午後から自隊訓練へ

RJNT 090500Z 02007KT 350V050 9999 -SHRA FEW020 SCT030 BKN050 30/20 Q1011

20200909_rjnt_06ja120n

ラジオでは良く聞いているサイテーションがやってきました。

20200909_rjnt_07ja120n

救急車が待機中

20200909_rjnt_08ja120n

JA120N C560 NNK

20200909_rjnt_09ja120n

医療搬送の受け側でした。富大病院へ搬送かな。

20200909_rjnt_10fvc

消防隊が盛大に放水して、一時の涼

20200909_rjnt_11ja120n

スポット6から15に移動してから、給油

RJNT 090600Z 36006KT 330V030 9999 -SHRA FEW025 SCT040 BKN050 29/20 Q1010

20200909_rjnt_12ja119w

砺波から帰ってきました。お疲れさま。

20200909_rjnt_13ja119w

JA119W↓

20200909_rjnt_14ja120n

名古屋へお帰りです。

20200909_rjnt_15ja120n

JA120N RJNT-RJNA C560 NNK

20200909_rjnt_16ja120n

救急の日にちなんだ、お客様でした。

20200909_rjnt_17ja10ym

JA10YM A109SP SAK 富山県ドクターヘリ

中日本さんの出発が優先され、オーバーフィールドで富大病院へのアクチャルミッション

 

| | コメント (0)

2020/09/08

訓練 富山空港他 2020/9/8 tue

台風10号により被害は、ありませんでした。ただ、吹き返しに伴うフェーンで酷暑が続いています。

RJNT 052300Z 16003KT 080V220 9999 FEW020 SCT150 BKN200 29/24 Q1009

20200908_0rjnt_00ja84an

ANA313 RJTT-RJNT JA84AN B737-881

RJNT 060000Z 21004KT 150V240 9999 FEW020 BKN220 29/23 Q1009

20200908_0rjnt_01ja84an

こんな日は、遠くが近い

20200908_0rjnt_02ja84an

20200908_0rjnt_03ja84an

ANA316 RJNT-RJTT JA84AN B737-881

20200908_0rjnt_04ja119w

今日は、午前から訓練へ

20200908_0rjnt_05ja119w

JA119W↑ AW139 富山県消防防災

RJNT 060100Z VRB02KT 9999 FEW020TCU SCT220 32/22 Q1009

今日は、他に外来機もなさそうなので、ちょっと遠足。

20200908_1nanto_06ja119w

夏雲の上に飛んでます。

RJNT 060200Z VRB02KT 9999 FEW020TCU 33/23 Q1008

20200908_1nanto_07ja119w

20200908_1nanto_08ja119w

南砺消防署で連携訓練です。

20200908_1nanto_09ja119w

搬送手順の確認 ヘリに近づく時は、身を低くして・・

20200908_1nanto_10ja119w

何回か同じパターンを繰り返します。

20200908_1nanto_11ja119w

これで、一応の課目は終わりの様です。

20200908_1nanto_12ja119w

20200908_1nanto_13ja119w

最後に吊り上げを展示して・・

20200908_1nanto_14ja119w

帰投です。

20200908_1nanto_15nantofd

訓練の講評・・

20200908_1nanto_16nantofd

キーワードは、メモ

RJNT 060300Z 03007KT 350V070 9999 FEW025TCU SCT100 33/24 Q1008

さて、小生も撤収

20200908_2rjnt_17ja119w

空港に戻ると、とやまさんが南向きに駐機

RJNT 060400Z 02006KT 350V060 9999 VCSH FEW025TCU 33/24 Q1007

20200908_2rjnt_18ja6512

JA6512↓ AS350B3 AKF

20200908_2rjnt_19ja119w

午後は、自隊訓練の模様

20200908_2rjnt_20ja119w

暑さに負けずに、ファイト

###

 

| | コメント (0)

2020/09/05

定点 富山空港 2020/9/5 sat

朝方のKCさんの雁行を発見できず、しょぼんとしているワイです。

RJNT 050000Z 34003KT 300V020 9999 FEW025 28/22 Q1014

20200905_rjnt_00ja69an

ANA313 RJTT-RJNT JA69AN B737-881

20200905_rjnt_01ja69an

一寸欲張り過ぎたら・・

20200905_rjnt_02ja333v

JA333V→ R44

20200905_rjnt_03ja69an

20200905_rjnt_04ja69an

20200905_rjnt_05ja69an

ANA316 RJNT-RJTT JA69AN B737-881

20200905_rjnt_06tommbo

駐車場の水溜りで、お忙しいアキアカネさん。

RJNT 050100Z VRB04KT 9999 FEW020 SCT025 29/23 Q1014

20200905_rjnt_07ja11aj

今日も飛んでる11AJさん

20200905_rjnt_08ja11aj

JA11AJ C208A ASK

###

 

###

20200905_rjnt_09ja05ar

JA05AR↓ BK117C-2 秋田県防災航空隊「なまはげ」

耐空入りの模様で、久しぶりの寄港です。

RJNT 050200Z 01006KT 340V060 9999 FEW025 SCT030 30/24 Q1013

20200905_rjnt_10ja05ar

給油とトイレ休憩をして、名古屋に向かいます。

20200905_rjnt_11ja333v

JA333V← R44

20200905_rjnt_12kc

朝のKCはF35B連れてアラスカ行きだった模様ですが、上空をブーン。

20200905_rjnt_13kc

台風避難で続々三沢を目指す

20200905_rjnt_14kc

5機通過した模様。 MC-130J コンバットタロン

20200905_rjnt_15ja05ar

お腹が一杯になったら、出発です。

20200905_rjnt_16ja05ar

JA05AR↑ 戻りは、秋の終わりかな

| | コメント (0)

2020/09/03

定点 富山空港他 2020/9/3 thu

RJNT 022300Z VRB08G22KT 9999 VCSH FEW020 SCT180 BKN/// 33/21 Q1003

20200903_rjnt_00nitsutanmaru21

第二十一日丹丸 JG5645

20200903_rjnt_01wakayoshimaru2

第二若吉丸 JD2262

20200903_rjnt_02ja56an

ANA313 RJTT-RJNT JA56AN B737-881

RJNT 030000Z 18013G25KT 110V210 9999 FEW020 SCT/// 33/22 Q1004

20200903_rjnt_03ja56an

まあまあ強い南風

20200903_rjnt_04ja56an

フェーンの空で、視程が効いています。

20200903_rjnt_05ja56an

20200903_rjnt_06ja56an

ANA316 RJNT-RJTT JA56AN B737-881

20200903_rjnt_07ja56an

彩度の上がった青空

RJNT 030100Z 18015G29KT 110V230 9999 FEW030 SCT060 BKN/// 35/22 Q1004

さて、ちょっと転戦

20200903_rjnt_08ja119w

空港に着く前にお出かけした「とやま」さんを追っかけて・・

20200903_rjnt_09mizube

昨日に引き続いて、富山市消防局大沢野消防署、八尾消防署と富山県防災航空隊との連携訓練。

20200903_rjnt_10ja119w

三連荘の連携訓練

20200903_rjnt_11ja119w

けが人を搬送する訓練が続いています。

20200903_rjnt_12ja119w

今日は南風なので、北側からアプローチ

20200903_rjnt_13ja119w

適格な手順と動作で安全第一

RJNT 030200Z 21015G25KT 180V280 9999 FEW030 SCT050 BKN/// 35/22 Q1004

20200903_rjnt_14ja119w

続いて、ファイアーアタッカーへの給水訓練

20200903_rjnt_15ja119w

ちょびっとだけ入れて、放水

20200903_rjnt_16ja119w

最後に盛大にお手振りして、訓練会場から帰投

20200903_rjnt_17ja119w

訓練終了訓示 お疲れ様でした。

20200903_rjnt_18mizube

なにげに、高山線の撮影ポイント

20200903_rjnt_19ja119w

空港に戻ると、給油中

20200903_rjnt_20ja119w

訓練が終わって、ファイアーアタッカーの取り外し。これが一番大変じゃー。

20200903_rjnt_21ja119w

ゴロゴロ 139は向いてないのかもね

暑さの中、お疲れさまでした。

| | コメント (0)

2020/08/29

定点 富山空港 2020/8/29 sat

RJNT 282300Z VRB02KT 9999 FEW030 SCT090 32/24 Q1011

20200829_rjnt_00sea

だっじゃ、こんなもんつくつたのはー

20200829_rjnt_01pl04

PL04「やひこ」さん航海

20200829_rjnt_02ja87an

ANA313 RJTT-RJNT JA87AN B737-8AL

RJNT 290000Z 33003KT 280V030 9999 FEW030 32/23 Q1011

20200829_rjnt_03ja87an

ANA316 RJNT-RJTT JA87AN B737-8AL

20200829_rjnt_04himawari

向日葵さんも、ぐったり

20200829_rjnt_05ja6515

JA6515↑ AS350B3 AKF

RJNT 290100Z VRB02KT 9999 FEW030 33/24 Q1011

20200829_rjnt_06ja11aj

JA11AJ C208A ASK

JA829Dさんも所在

 

 

| | コメント (0)

2020/08/26

定点 富山空港 2020/8/26 wed

今朝は、早朝から捜索事案が入って大忙しの防災さん。

RJNT 260100Z VRB04KT 9999 FEW030 33/24 Q1010

20200826_rjnt_00ja119w

JA119W AW139 富山県消防防災

本日3回目の捜索から帰ってきたばかり。

20200826_rjnt_01ja6515

JA6515↑ AS350B3 AKF

RJNT 260200Z 35007KT 300V030 9999 FEW030 34/23 Q1010

20200826_rjnt_02ja6266

初見のR66さんが立ち寄っていきました。

20200826_rjnt_03ja6266

JA6266 R66 ALP

20200826_rjnt_04ja916a

搭載海保さんがやってきました。

20200826_rjnt_05ja916a

T/G

20200826_rjnt_06ja916a

ストップ&ゴー やわ

20200826_rjnt_07ja916a

20200826_rjnt_08ja916a

20200826_rjnt_09ja916a

JA916A↓ S-76D JCG PLH08「えちご」搭載「みさご」

RJNT 260300Z 36008KT 9999 FEW035 35/24 Q1009

20200826_rjnt_10ja829d

JA829D↓ R66 DAK

###

 

###

20200826_rjnt_11ja11aj

今日も、フェスティバル

20200826_rjnt_12ja6512

JA6512↓ AS350B3 AKF

20200826_rjnt_13ja119w

JA119W↑ 本日4回目の緊急運航

RJNT 260400Z 36009KT 9999 FEW035 35/23 Q1009

20200826_rjnt_14ja6515

JA6515↑

RJNT 260500Z 36009KT 9999 FEW035 35/22 Q1009

この間に「みさご」さんは、お帰りに

20200826_rjnt_15ja6512

JA6512↑

20200826_rjnt_16ja119w

JA119W↓ 剣岳での救難でした。

20200826_rjnt_17ja119w

「つるぎ」さん休みに入ったら、いきなり「アルペン特急」

20200826_rjnt_18ja13aj

JA13AJ↓ C208 ASK

測量隊は、まだまだ大忙し

 

| | コメント (0)

より以前の記事一覧

その他のカテゴリー

BI Boading record aircraft Boading record ship FlightTracking lighthouse NAVAIDS RJNT LOG SKY MASSAGE US NAVY USMC うみ おか そら てつ アクシデント エアロック チーム室屋 三沢飛行場 上五島空港 下地島空港 下総飛行場 与論空港 与那国空港 中標津空港 中部国際空港 久米島空港 五島福江空港 仙台空港 伊江島空港 但馬空港 佐賀空港 入間飛行場 八尾空港 八戸飛行場 出雲空港 函館空港 利尻空港 北九州空港 北大東空港 十勝飛行場 千歳飛行場 南大東空港 博物館 厚木飛行場 名古屋飛行場 喜界空港 嘉手納飛行場 場外 壱岐空港 多良間空港 大分空港 大湊飛行場 大阪国際空港 大館能代空港 天草空港 奄美空港 奥尻空港 宇部山口空港 宇都宮飛行場 宮古空港 宮崎空港 富山空港 対馬空港 小松島飛行場 小松飛行場 屋久島空港 山形空港 岐阜飛行場 岡南飛行場 岡山空港 岩国飛行場 帯広空港 広島空港 庄内空港 徳之島空港 徳島飛行場 成田国際空港 新島空港 新潟空港 新田原飛行場 旭川空港 旭川飛行場 明野飛行場 普天間飛行場 木更津飛行場 札幌飛行場 東京国際空港 松山空港 松島飛行場 松本空港 横田飛行場 沖永良部空港 波照間空港 浜松飛行場 海上保安庁 海上自衛隊 海外 熊本空港 百里飛行場 相馬原飛行場 石垣空港 石見空港 礼文空港 神戸空港 神津島空港 福井空港 福岡空港 福島空港 秋田空港 稚内空港 種子島空港 空撮 立川飛行場 築城飛行場 粟国空港 美保飛行場 能登空港 舞鶴飛行場 航空自衛隊 芦屋飛行場 花巻空港 調布飛行場 警務消防 那覇空港 釧路空港 長崎空港 関西国際空港 陸上自衛隊 隠岐空港 霞ヶ浦飛行場 霞目飛行場 青森空港 静岡空港 静浜飛行場 飛行場跡 飛行船 鹿児島空港 鹿屋飛行場